Airfield :
LOGIN :

Register | Disclaimer

   EN    FR    IT 

 










Legend :    VFR   Marginal VFR   IFR   Intensive IFR   Very Intensive IFR
Visi :
Ceiling :
>= 8 km
>= 3000ft
5 to 8 km
1000 to 3000 ft
1500m to 5 km
500 to 1000 ft
800 to 1500m
200 to 500 ft
< 800m
< 200 ft
Symbols :   Thunderstorms  Fog  Heavy snow  Heavy precipitations  Wind > 20 kt
SIGMETs :     Misc.  Thunderstorms  Icing  Turbulence  Mountain Waves  Volcanic Ashes







- Airport Elevation : -11 ft
- IATA code : AMS


EHAM - Amsterdam Schiphol

CURRENT METAR :
  • 180655Z 34010KT 310V010 9999 BKN032 07/05 Q1020 NOSIG

EXPIRED METARs :
  • 180625Z 33011KT 310V010 9999 FEW020 BKN033 07/05 Q1019 NOSIG
  • 180555Z 33011KT 9999 FEW020 SCT033 07/05 Q1019 NOSIG
  • 180525Z 34012KT 7000 -SHRA FEW018 FEW022TCU SCT033 07/06 Q1018 NOSIG
  • 180455Z 33012KT 8000 -SHRA FEW018 SCT023 07/05 Q1017 NOSIG
  • 180425Z 33014KT 7000 -SHRA FEW014 SCT020 BKN036 07/05 Q1017 BECMG 9999

TAF TAF EHAM
Valid from the 18 at 06:00 until the 19 at 12:00 UTC


180505Z 1806/1912 34014KT 9999 FEW015 SCT025
PROB30
TEMPO 1806/1810 7000 -SHRA SCT020TCU
BECMG 1815/1818 34006KT
BECMG 1905/1908 27007KT
PROB40
TEMPO 1905/1912 6000 -RADZ BKN018
No reported NOTAMs for that airfield.



MET'MAP, your aeronautical weather chart ! - Copyright ORBIFLY December 2007 - Disclaimer

ORBIFLY MET'MAP TEAM :

Programming & Development : Alexandra Zaïnal
Concept & Development : Baudouin d'Aumeries
Co-Development & Prog : Marc-Olivier Méhu
Technical & hardware support : Manuel Goepfert

Contact : metmap@orbifly.com




SOURCES & CREDITS :

   NOAA